Skip Navigation LinksHome page > Weather > Current weather Skip Navigation Links

Current Weather

Fukuoka, Japan

For information only: do not use for flight planning or navigation.
Latest weather
Observation time Tuesday, November 30, 2021 6:00 AM JST
Local time Tuesday, November 30, 2021 6:40 AM JST
Flight conditions Visual Meteorological Conditions
Winds
Wind direction South-Southeast (150°)
Wind speed 18 mph
Visibility 6.2 mi.
Sky condition
Ceiling unlimited
Cloud layer few clouds 4,000 ft.
Cloud layer scattered clouds 14,000 ft.
Temperature 48°F
Dewpoint 43°F
Altimeter 30.06 in.Hg
Derived measurements
Relative humidity 81%
Wind chill 42°F
Density altitude -705 ft.
Remarks
No significant changes expected in the next two hours.
METAR RJFF 292100Z 15016KT 9999 FEW040 SCT140 09/06 Q1018 NOSIG RMK 1CU040 4AC140 A3008

Settings

Location code

InnerDrive.Weather 4.0.6770.0 Release CLR 4.0.30319.42000
Copyright ©2018 Inner Drive Technology. All rights reserved. Portions Copyright ©1986-2018 David Braverman.

Find weather

Site navigation


Skip Navigation Links

Place info

Page info

PayPal - The safer, easier way to pay online!

Return home.

Copyright ©2021 Inner Drive Technology. Purveyors of fine, hand-crafted computer software. Page printed 2021-11-29T21:40:38 UTC.